Northport, MI (49670)

5:45 AM EDT on August 04, 2015 (GMT -0400)
KMISUTTO2 | | Change Station
CLOSE
Current Station
Personal Weather Station
Location: Suttons Bay, MI
Elevation: 797 ft
Nearby Weather Stations

Elev 797 ft 45.01 °N, 85.64 °W | Updated 5 minutes ago

Overcast
Overcast
61.0 °F
Feels Like 61.0 °F
N
0.0
Wind Variable Wind from WSW
Gusts 0.0 mph

Today
High -- | Low -- °F
--% Chance of Precip.
Yesterday
High -- | Low -- °F
Precip. -- in
6:30 AM 9:05 PM
Waning Gibbous, 79% visible
Pressure 29.85 in
Visibility 10.0 miles
Clouds Scattered Clouds 2200 ft
Mostly Cloudy 2800 ft
Overcast 5000 ft
Dew Point 59 °F
Humidity 92%
Rainfall 0.00 in
Snow Depth Not available.
UV 0 out of 12
Pollen 5.50 out of 12
Air Quality Not available.
Flu Activity Not available.
METAR KCVX 040934Z AUTO 24004KT 10SM SCT022 BKN028 OVC050 16/15 A2985 RMK AO2 T01640150

More Conditions Fewer Conditions

Pressure 29.85 in
Visibility 10.0 miles
Clouds Scattered Clouds 2200 ft
Mostly Cloudy 2800 ft
Overcast 5000 ft
Dew Point 59 °F
Humidity 92%
Rainfall 0.00 in
Snow Depth Not available.
UV 0 out of 12
Pollen 5.50 out of 12
Air Quality Not available.
Flu Activity Not available.
METAR KCVX 040934Z AUTO 24004KT 10SM SCT022 BKN028 OVC050 16/15 A2985 RMK AO2 T01640150

More Conditions Fewer Conditions

Nowcast | as of 5:00 am EDT on August 4, 2015

At 6 am...mostly cloudy. Isolated showers. Temperature 61. Southwest winds 6 mph. At 8 am...numerous showers. Temperature 61. West winds 7 mph. At 10 am...numerous showers. Temperature 64. Northwest winds 10 mph. At 12 PM...mostly cloudy. Scattered showers. Temperature 66. Northwest winds 13 mph.

×

10-Day Weather Forecast

×

Almanac

Astronomy

Aug. 04, 2015 Rise Set
Actual Time
Civil Twilight
Nautical Twilight
Astronomical Twilight
Moon
Length of Visible Light
Length of Day
Tomorrow will be .
, % of the Moon is Illuminated

Today's Extremes

State Highs State Lows

Community

WunderPhotos

Upload Photos

1,843,880 photos uploaded!

WunderBlogs® & News

Nearby

Air Quality

  Air Quality AQ Index Pollutant
Not available.

Snow Depth

Station Depth Elevation

Earthquake Activity

City Distance Mag. Time & Date
Minimum magnitude displayed is 2.5.

Coastal Water Temperatures

Place Temperature

Stations

Nearby Weather Stations

Station Location Temp. Windchill Dew Point Humidity Wind Precip. Elev Updated Type